Time;durP1;ratioP1;P1;durP2;ratioP2;P2;SDS_P1;SDS_P2;PMS_P1;PMS_P2;Temp;Humidity;BMP_temperature;BMP_pressure;BME280_temperature;BME280_humidity;BME280_pressure;Samples;Min_cycle;Max_cycle;Signal;HPM_P1;HPM_P2
2021/06/21 00:00:15;;;;;;;3.20;1.90;;;;;;;24.72;53.03;100552.19;5073720;28;20039;-59
2021/06/21 00:02:42;;;;;;;3.08;1.75;;;;;;;24.67;53.11;100537.72;5074876;28;20024;-59
2021/06/21 00:05:09;;;;;;;4.00;1.92;;;;;;;24.72;53.32;100548.69;5074579;28;20112;-58
2021/06/21 00:07:34;;;;;;;4.35;2.03;;;;;;;24.69;53.40;100546.38;5074072;28;20033;-59
2021/06/21 00:10:00;;;;;;;3.63;1.92;;;;;;;24.71;53.18;100544.38;5074772;28;20460;-59
2021/06/21 00:12:25;;;;;;;5.05;2.10;;;;;;;24.70;53.32;100532.03;5074329;28;20147;-59
2021/06/21 00:14:50;;;;;;;4.15;1.90;;;;;;;24.70;53.13;100543.53;5074174;28;20096;-59
2021/06/21 00:17:16;;;;;;;3.25;1.90;;;;;;;24.69;53.14;100543.69;5074124;28;20025;-58
2021/06/21 00:19:43;;;;;;;4.00;2.25;;;;;;;24.68;53.34;100537.56;5074558;28;20028;-59
2021/06/21 00:22:08;;;;;;;3.67;1.85;;;;;;;24.68;53.52;100539.41;5072996;28;20051;-59
2021/06/21 00:24:33;;;;;;;3.33;1.65;;;;;;;24.68;53.36;100544.72;5073472;28;20028;-59
2021/06/21 00:26:59;;;;;;;3.85;1.92;;;;;;;24.69;53.42;100543.69;5072562;28;20032;-59
2021/06/21 00:29:24;;;;;;;2.80;1.70;;;;;;;24.67;53.24;100546.53;5072515;28;20052;-59
2021/06/21 00:31:52;;;;;;;3.45;1.95;;;;;;;24.67;53.22;100537.72;5073246;28;20028;-58
2021/06/21 00:34:18;;;;;;;3.60;1.90;;;;;;;24.66;53.33;100528.91;5072246;28;20554;-58
2021/06/21 00:36:43;;;;;;;3.30;1.60;;;;;;;24.66;53.25;100536.06;5073246;28;20028;-58
2021/06/21 00:39:09;;;;;;;4.72;2.17;;;;;;;24.64;53.64;100522.91;5072652;28;20687;-59
2021/06/21 00:41:36;;;;;;;4.63;1.80;;;;;;;24.63;53.54;100514.09;5072370;28;20021;-59
2021/06/21 00:44:02;;;;;;;3.10;1.70;;;;;;;24.65;53.73;100521.91;5072514;28;20044;-59
2021/06/21 00:46:27;;;;;;;3.58;1.80;;;;;;;24.64;53.76;100522.91;5072585;28;20056;-59
2021/06/21 00:48:52;;;;;;;4.22;1.92;;;;;;;24.65;53.40;100521.09;5072495;28;20021;-59
2021/06/21 00:51:18;;;;;;;4.05;1.95;;;;;;;24.64;53.38;100528.25;5072717;28;20021;-58
2021/06/21 00:53:44;;;;;;;5.10;1.90;;;;;;;24.62;53.68;100522.25;5072917;28;20052;-58
2021/06/21 00:56:10;;;;;;;3.55;1.90;;;;;;;24.63;53.67;100518.59;5071792;28;20020;-59
2021/06/21 00:58:36;;;;;;;2.97;1.52;;;;;;;24.63;53.80;100523.94;5072774;28;20031;-60
2021/06/21 01:01:02;;;;;;;4.03;1.88;;;;;;;24.61;53.88;100521.44;5072264;28;20391;-59
2021/06/21 01:03:27;;;;;;;4.35;2.03;;;;;;;24.62;53.69;100520.44;5072017;28;20361;-59
2021/06/21 01:05:53;;;;;;;3.63;1.83;;;;;;;24.61;53.78;100520.63;5072816;28;20028;-59
2021/06/21 01:08:18;;;;;;;4.68;1.90;;;;;;;24.62;53.45;100520.44;5072361;28;20092;-60
2021/06/21 01:10:46;;;;;;;3.95;1.70;;;;;;;24.61;53.58;100517.97;5071809;28;20044;-59
2021/06/21 01:13:22;;;;;;;3.08;1.73;;;;;;;24.61;53.87;100512.63;5072269;28;20025;-60
2021/06/21 01:16:05;;;;;;;4.03;1.73;;;;;;;24.59;53.58;100510.13;5072829;28;20020;-59
2021/06/21 01:18:34;;;;;;;3.08;1.70;;;;;;;24.61;53.57;100517.97;5071825;28;20036;-59
2021/06/21 01:24:06;;;;;;;4.40;2.03;;;;;;;24.59;53.50;100514.63;5089198;27;20473;-59
2021/06/21 01:26:42;;;;;;;3.13;1.63;;;;;;;24.58;54.04;100524.44;5089857;28;20485;-59
2021/06/21 01:29:21;;;;;;;4.82;1.88;;;;;;;24.58;53.77;100526.28;5089439;28;20111;-60
2021/06/21 01:32:17;;;;;;;3.28;1.70;;;;;;;24.57;53.87;100522.78;5088726;28;20025;-59
2021/06/21 01:34:55;;;;;;;4.10;1.90;;;;;;;24.55;53.82;100532.75;5088278;28;20155;-59
2021/06/21 01:37:23;;;;;;;3.75;1.70;;;;;;;24.55;54.12;100543.41;5088422;28;20032;-59
2021/06/21 01:39:52;;;;;;;3.00;1.60;;;;;;;24.54;53.92;100547.06;5089655;28;20025;-59
2021/06/21 01:42:21;;;;;;;4.32;1.77;;;;;;;24.55;53.54;100546.09;5088895;28;20436;-59
2021/06/21 01:44:55;;;;;;;3.25;1.70;;;;;;;24.54;54.04;100540.94;5088727;28;20036;-59
2021/06/21 01:47:22;;;;;;;;;;;;;;;24.54;53.94;100535.59;5089591;28;20463;-59
2021/06/21 01:49:49;;;;;;;3.38;1.65;;;;;;;24.53;53.58;100540.09;5089341;28;19963;-59
2021/06/21 01:52:17;;;;;;;2.80;1.60;;;;;;;24.52;53.63;100538.44;5088041;28;20506;-60
2021/06/21 01:54:53;;;;;;;5.38;1.60;;;;;;;24.51;53.85;100534.09;5089002;28;20090;-59
2021/06/21 01:57:22;;;;;;;3.53;1.55;;;;;;;24.51;53.77;100528.78;5089053;28;20031;-59
2021/06/21 01:59:49;;;;;;;3.50;1.80;;;;;;;24.51;53.77;100528.78;5088277;28;20024;-59
2021/06/21 02:02:16;;;;;;;3.72;1.60;;;;;;;24.50;53.65;100526.28;5088817;28;20372;-58
2021/06/21 02:04:42;;;;;;;3.33;1.60;;;;;;;24.51;53.73;100519.97;5088900;28;20028;-58
2021/06/21 02:07:17;;;;;;;4.60;1.85;;;;;;;24.51;53.60;100514.63;5087799;28;20025;-59
2021/06/21 02:09:45;;;;;;;3.50;1.60;;;;;;;24.49;54.06;100522.81;5088848;28;20468;-59
2021/06/21 02:12:12;;;;;;;3.58;1.60;;;;;;;24.49;54.05;100520.13;5088495;28;20040;-58
2021/06/21 02:14:39;;;;;;;3.08;1.48;;;;;;;24.47;53.78;100511.50;5088322;28;20024;-58
2021/06/21 02:17:08;;;;;;;3.78;1.75;;;;;;;24.45;53.70;100508.19;5088498;28;20055;-59
2021/06/21 02:19:34;;;;;;;2.65;1.30;;;;;;;24.47;53.68;100514.16;5087983;28;20025;-58
2021/06/21 02:21:59;;;;;;;4.00;2.05;;;;;;;24.47;53.61;100519.50;5088186;28;20561;-59
2021/06/21 02:24:25;;;;;;;2.90;1.42;;;;;;;24.44;53.83;100515.34;5088442;28;20115;-59
2021/06/21 02:26:52;;;;;;;3.53;1.40;;;;;;;24.43;53.83;100516.34;5087769;28;20021;-59
2021/06/21 02:29:26;;;;;;;3.05;1.75;;;;;;;24.45;53.83;100514.34;5088299;28;20113;-59
2021/06/21 02:31:51;;;;;;;2.97;1.40;;;;;;;24.45;53.69;100521.50;5088538;28;20043;-59
2021/06/21 02:34:17;;;;;;;3.38;1.58;;;;;;;24.43;53.58;100510.19;5079659;28;20032;-58
2021/06/21 02:36:47;;;;;;;4.10;1.52;;;;;;;24.44;53.51;100517.19;5074816;28;20107;-59
2021/06/21 02:39:12;;;;;;;2.88;1.50;;;;;;;24.41;53.46;100509.53;5074724;28;20044;-59
2021/06/21 02:41:37;;;;;;;2.58;1.50;;;;;;;24.43;53.37;100512.84;5074094;28;20024;-59
2021/06/21 02:44:04;;;;;;;2.92;1.60;;;;;;;24.42;53.48;100519.19;5074612;28;20028;-58
2021/06/21 02:46:30;;;;;;;3.15;1.60;;;;;;;24.41;53.57;100514.84;5074786;28;20020;-58
2021/06/21 02:48:56;;;;;;;3.90;1.80;;;;;;;24.41;53.45;100509.53;5073992;28;20535;-58
2021/06/21 02:51:49;;;;;;;2.53;1.33;;;;;;;24.41;53.17;100514.84;5074371;28;20098;-58
2021/06/21 02:54:37;;;;;;;4.18;1.50;;;;;;;24.39;53.20;100509.72;5072090;28;20040;-58
2021/06/21 02:57:29;;;;;;;2.53;1.42;;;;;;;24.38;53.22;100518.69;5074055;28;20098;-58
2021/06/21 02:59:55;;;;;;;2.78;1.40;;;;;;;24.38;53.47;100508.03;5074728;28;20307;-59
2021/06/21 03:02:22;;;;;;;2.95;1.45;;;;;;;24.37;53.48;100514.38;5073739;28;20357;-58
2021/06/21 03:04:48;;;;;;;4.00;1.70;;;;;;;24.36;53.20;100520.72;5074659;28;20024;-58
2021/06/21 03:07:19;;;;;;;3.92;1.60;;;;;;;24.36;53.42;100518.03;5074137;28;20030;-58
2021/06/21 03:09:47;;;;;;;3.28;1.60;;;;;;;24.35;52.90;100521.69;5088933;28;20024;-58
2021/06/21 03:12:15;;;;;;;3.92;1.70;;;;;;;24.35;52.98;100529.69;5073631;28;20047;-58
2021/06/21 03:14:44;;;;;;;2.65;1.50;;;;;;;24.34;53.05;100535.19;5074274;28;20021;-58
2021/06/21 03:17:10;;;;;;;2.42;1.50;;;;;;;24.34;52.95;100530.72;5073294;28;20020;-58
2021/06/21 03:19:37;;;;;;;2.63;1.40;;;;;;;24.31;53.12;100531.06;5074187;28;20051;-58
2021/06/21 03:22:03;;;;;;;2.15;1.30;;;;;;;24.34;53.06;100524.53;5073548;28;20037;-59
2021/06/21 03:24:28;;;;;;;3.28;1.38;;;;;;;24.33;53.03;100517.56;5073149;28;20492;-59
2021/06/21 03:26:53;;;;;;;3.17;1.50;;;;;;;24.32;52.67;100516.72;5074150;28;20071;-59
2021/06/21 03:29:20;;;;;;;3.22;1.45;;;;;;;24.32;52.52;100516.72;5073581;28;20111;-59
2021/06/21 03:31:51;;;;;;;3.00;1.48;;;;;;;24.31;53.01;100508.91;5073030;28;20033;-58
2021/06/21 03:34:22;;;;;;;2.70;1.30;;;;;;;24.31;52.76;100511.56;5073645;28;20020;-58
2021/06/21 03:36:47;;;;;;;2.50;1.30;;;;;;;24.29;52.86;100497.59;5073640;28;20063;-60
2021/06/21 03:39:13;;;;;;;3.35;1.48;;;;;;;24.29;52.82;100500.25;5072418;28;20067;-59
2021/06/21 03:41:39;;;;;;;3.45;1.30;;;;;;;24.29;52.69;100492.28;5073662;28;20028;-59
2021/06/21 03:44:04;;;;;;;3.25;1.55;;;;;;;24.27;52.54;100497.78;5072567;28;20024;-59
2021/06/21 03:46:31;;;;;;;3.22;1.40;;;;;;;24.28;52.71;100499.44;5072513;28;20520;-59
2021/06/21 03:49:00;;;;;;;2.50;1.35;;;;;;;24.27;52.71;100509.28;5073361;28;20024;-60
2021/06/21 03:51:28;;;;;;;3.50;1.50;;;;;;;24.26;52.59;100504.13;5072380;28;20024;-59
2021/06/21 03:53:53;;;;;;;2.40;1.30;;;;;;;24.25;52.32;100515.75;5073517;28;20029;-59
2021/06/21 03:56:19;;;;;;;2.83;1.20;;;;;;;24.25;52.85;100513.09;5073246;28;20344;-60
2021/06/21 03:58:48;;;;;;;2.55;1.30;;;;;;;24.24;52.33;100514.09;5072466;28;20027;-59
2021/06/21 04:01:14;;;;;;;2.63;1.38;;;;;;;24.22;52.23;100502.78;5072816;28;20036;-59
2021/06/21 04:03:39;;;;;;;1.92;1.20;;;;;;;24.24;52.19;100516.75;5073213;28;20384;-59
2021/06/21 04:06:04;;;;;;;2.07;1.13;;;;;;;24.22;52.08;100505.47;5072113;28;20130;-59
2021/06/21 04:08:30;;;;;;;2.28;1.17;;;;;;;24.22;52.37;100508.94;5073043;28;20275;-59
2021/06/21 04:10:58;;;;;;;2.55;1.30;;;;;;;24.22;52.58;100516.94;5073153;28;20066;-59
2021/06/21 04:13:23;;;;;;;2.35;1.23;;;;;;;24.21;52.25;100512.63;5071925;28;20107;-59
2021/06/21 04:15:49;;;;;;;2.67;1.08;;;;;;;24.19;52.09;100509.28;5073042;28;20071;-60
2021/06/21 04:18:19;;;;;;;2.63;1.10;;;;;;;24.21;52.42;100517.09;5072549;28;20544;-59
2021/06/21 04:20:46;;;;;;;3.13;1.17;;;;;;;24.20;52.03;100518.94;5071857;28;20335;-58
2021/06/21 04:23:13;;;;;;;3.25;1.30;;;;;;;24.20;52.39;100520.78;5071053;28;20075;-60
2021/06/21 04:25:38;;;;;;;2.70;1.20;;;;;;;24.19;51.97;100517.28;5072622;28;20078;-59
2021/06/21 04:28:06;;;;;;;2.20;1.00;;;;;;;24.20;51.90;100518.13;5071543;28;20025;-59
2021/06/21 04:30:32;;;;;;;2.30;1.10;;;;;;;24.17;51.67;100524.63;5072428;28;20044;-59
2021/06/21 04:32:57;;;;;;;2.30;1.00;;;;;;;24.18;52.19;100522.78;5072310;28;20392;-58
2021/06/21 04:35:27;;;;;;;1.70;1.00;;;;;;;24.16;52.09;100528.25;5071136;28;20119;-58
2021/06/21 04:37:54;;;;;;;1.45;0.93;;;;;;;24.17;52.06;100529.94;5072492;28;20096;-59
2021/06/21 04:40:22;;;;;;;1.77;0.90;;;;;;;24.17;51.89;100532.59;5071053;28;20380;-59
2021/06/21 04:42:47;;;;;;;1.63;0.98;;;;;;;24.16;51.83;100535.44;5075110;28;20126;-59
2021/06/21 04:45:13;;;;;;;1.77;1.00;;;;;;;24.15;52.16;100531.09;5075329;28;20016;-59
2021/06/21 04:47:42;;;;;;;1.65;0.90;;;;;;;24.15;52.03;100533.75;5074991;28;20076;-59
2021/06/21 04:50:12;;;;;;;1.52;0.85;;;;;;;24.14;51.79;100534.78;5076907;28;20029;-59
2021/06/21 04:52:40;;;;;;;1.90;1.00;;;;;;;24.13;51.70;100531.28;5078291;28;20082;-59
2021/06/21 04:55:17;;;;;;;1.83;0.80;;;;;;;24.11;51.61;100527.97;5077773;28;20094;-60
2021/06/21 04:57:43;;;;;;;1.90;1.00;;;;;;;24.12;51.79;100524.31;5079750;28;20081;-59
2021/06/21 05:00:15;;;;;;;1.60;0.85;;;;;;;24.11;51.64;100524.47;5080606;28;20031;-59
2021/06/21 05:02:40;;;;;;;1.38;0.90;;;;;;;24.11;51.51;100527.13;5080768;28;20028;-59
2021/06/21 05:05:07;;;;;;;1.63;0.90;;;;;;;24.09;51.79;100524.66;5076458;28;20025;-59
2021/06/21 05:07:32;;;;;;;1.52;0.90;;;;;;;24.09;51.43;100525.47;5075924;28;20043;-59
2021/06/21 05:09:58;;;;;;;1.10;0.70;;;;;;;24.09;51.71;100533.44;5075783;28;20020;-59
2021/06/21 05:12:26;;;;;;;1.05;0.75;;;;;;;24.07;51.40;100527.47;5074954;28;20491;-58
2021/06/21 05:14:51;;;;;;;2.05;0.90;;;;;;;24.08;51.53;100533.63;5072950;28;20033;-59
2021/06/21 05:17:17;;;;;;;1.90;0.98;;;;;;;24.07;51.40;100540.78;5071121;28;20464;-60
2021/06/21 05:19:43;;;;;;;1.38;0.77;;;;;;;24.07;51.47;100542.63;5072805;28;20028;-60
2021/06/21 05:22:09;;;;;;;1.63;0.80;;;;;;;24.06;51.15;100544.44;5071791;28;20047;-59
2021/06/21 05:24:34;;;;;;;1.50;1.00;;;;;;;24.05;51.10;100542.81;5071205;28;20029;-60
2021/06/21 05:27:02;;;;;;;1.77;0.80;;;;;;;24.05;51.03;100544.63;5072066;28;20016;-58
2021/06/21 05:29:28;;;;;;;1.35;0.73;;;;;;;24.05;50.99;100536.63;5071160;28;20812;-58
2021/06/21 05:31:57;;;;;;;1.63;0.93;;;;;;;24.04;51.38;100543.78;5072099;28;20108;-58
2021/06/21 05:34:22;;;;;;;1.75;0.75;;;;;;;24.04;51.14;100545.63;5071542;28;20078;-59
2021/06/21 05:36:48;;;;;;;1.42;0.80;;;;;;;24.03;50.87;100541.31;5071415;28;20492;-59
2021/06/21 05:39:13;;;;;;;1.95;0.80;;;;;;;24.03;51.08;100535.97;5071602;28;20448;-59
2021/06/21 05:41:38;;;;;;;1.48;0.80;;;;;;;24.02;51.27;100540.47;5071729;28;20115;-59
2021/06/21 05:44:04;;;;;;;1.73;0.73;;;;;;;24.02;51.00;100540.47;5070516;28;20422;-59
2021/06/21 05:46:29;;;;;;;1.95;0.93;;;;;;;24.02;51.15;100536.97;5071958;28;20040;-59
2021/06/21 05:48:54;;;;;;;0.90;0.70;;;;;;;24.01;50.96;100536.16;5071662;28;20021;-59
2021/06/21 05:51:20;;;;;;;1.85;0.88;;;;;;;24.01;50.80;100536.16;5070781;28;20468;-59
2021/06/21 05:53:45;;;;;;;1.57;0.60;;;;;;;23.99;51.03;100539.97;5071794;28;20032;-58
2021/06/21 05:56:10;;;;;;;1.33;0.70;;;;;;;23.99;51.07;100539.97;5071284;28;20371;-59
2021/06/21 05:58:36;;;;;;;2.05;1.00;;;;;;;23.99;50.92;100535.50;5070815;28;20114;-59
2021/06/21 06:01:01;;;;;;;1.55;0.80;;;;;;;24.00;51.15;100538.97;5087091;28;20186;-59
2021/06/21 06:03:35;;;;;;;1.30;0.80;;;;;;;23.98;50.91;100530.34;5071573;28;20502;-59
2021/06/21 06:06:02;;;;;;;1.70;0.75;;;;;;;23.97;50.62;100534.81;5070858;28;20047;-59
2021/06/21 06:08:27;;;;;;;1.65;0.68;;;;;;;23.99;50.71;100539.97;5071743;28;20036;-59
2021/06/21 06:10:53;;;;;;;1.20;0.70;;;;;;;23.98;50.98;100541.00;5075314;28;20032;-58
2021/06/21 06:13:18;;;;;;;1.83;0.70;;;;;;;23.98;50.95;100535.66;5073991;28;20024;-59
2021/06/21 06:15:43;;;;;;;1.30;0.77;;;;;;;23.92;50.25;100541.66;5074923;28;20063;-58
2021/06/21 06:18:08;;;;;;;1.60;0.90;;;;;;;23.85;50.40;100547.66;5074811;28;20020;-58
2021/06/21 06:20:34;;;;;;;2.63;0.63;;;;;;;23.78;50.38;100557.28;5074308;28;20031;-57
2021/06/21 06:22:59;;;;;;;1.10;0.70;;;;;;;23.75;50.62;100556.78;5074668;28;20297;-59
2021/06/21 06:25:25;;;;;;;1.33;0.70;;;;;;;23.73;50.54;100568.44;5074672;28;20086;-59
2021/06/21 06:27:51;;;;;;;1.15;0.70;;;;;;;23.72;50.80;100569.44;5074442;28;20025;-58
2021/06/21 06:30:21;;;;;;;2.22;0.80;;;;;;;23.71;50.75;100572.28;5074769;28;20021;-58
2021/06/21 06:32:46;;;;;;;2.35;0.63;;;;;;;23.73;51.12;100571.13;5074004;28;20052;-58
2021/06/21 06:35:15;;;;;;;1.67;0.80;;;;;;;23.73;51.09;100578.25;5074832;28;20028;-60
2021/06/21 06:37:41;;;;;;;1.60;0.70;;;;;;;23.73;50.94;100578.25;5075108;28;20638;-58
2021/06/21 06:40:07;;;;;;;1.58;0.77;;;;;;;23.73;51.26;100584.41;5073742;28;20024;-58
2021/06/21 06:42:32;;;;;;;1.95;0.63;;;;;;;23.72;51.07;100585.41;5074451;28;20421;-58
2021/06/21 06:44:58;;;;;;;1.48;0.70;;;;;;;23.73;51.01;100583.56;5074600;28;20040;-61
2021/06/21 06:47:26;;;;;;;2.40;0.80;;;;;;;23.72;51.26;100593.38;5074019;28;20069;-59
2021/06/21 06:49:54;;;;;;;2.35;0.70;;;;;;;23.73;51.01;100594.19;5074761;28;20016;-59
2021/06/21 06:52:22;;;;;;;1.92;0.70;;;;;;;23.73;50.89;100599.53;5074226;28;20050;-58
2021/06/21 06:57:32;;;;;;;3.20;1.25;;;;;;;23.74;50.95;100606.53;5074842;28;20101;-59
2021/06/21 06:59:58;;;;;;;1.20;0.60;;;;;;;23.72;50.90;100606.69;5074524;28;20536;-59
2021/06/21 07:02:24;;;;;;;1.10;0.65;;;;;;;23.74;50.86;100614.50;5073394;28;20127;-59
2021/06/21 07:04:50;;;;;;;2.08;0.60;;;;;;;23.74;51.22;100622.47;5074669;28;20028;-59
2021/06/21 07:07:18;;;;;;;2.25;0.80;;;;;;;23.73;50.99;100626.97;5074277;28;20463;-59
2021/06/21 07:09:43;;;;;;;2.47;0.70;;;;;;;23.74;51.14;100625.16;5073735;28;20434;-59
2021/06/21 07:12:14;;;;;;;2.60;1.00;;;;;;;23.72;51.02;100633.28;5074166;28;20051;-59
2021/06/21 07:14:45;;;;;;;1.65;0.75;;;;;;;23.71;50.68;100634.28;5074970;28;20464;-60
2021/06/21 07:17:10;;;;;;;1.65;0.70;;;;;;;23.68;50.77;100634.59;5075155;28;20040;-60
2021/06/21 07:19:38;;;;;;;1.67;0.73;;;;;;;23.66;51.26;100631.28;5074869;28;20206;-60
2021/06/21 07:22:04;;;;;;;1.10;0.60;;;;;;;23.64;51.19;100638.63;5073094;28;20039;-59
2021/06/21 07:24:29;;;;;;;1.55;0.80;;;;;;;23.65;50.96;100634.13;5075123;28;20376;-60
2021/06/21 07:26:55;;;;;;;1.77;0.80;;;;;;;23.65;50.95;100634.94;5074569;28;20017;-59
2021/06/21 07:29:20;;;;;;;3.38;0.70;;;;;;;23.65;51.00;100634.94;5073391;28;20461;-62
2021/06/21 07:31:46;;;;;;;1.92;0.60;;;;;;;23.65;50.94;100644.75;5075536;28;20533;-59
2021/06/21 07:34:11;;;;;;;1.02;0.60;;;;;;;23.61;50.82;100640.78;5076156;28;20201;-58
2021/06/21 07:36:37;;;;;;;1.77;0.75;;;;;;;23.60;51.10;100649.75;5073289;28;20028;-59
2021/06/21 07:39:05;;;;;;;2.53;0.80;;;;;;;23.61;50.78;100657.56;5073748;28;20028;-60
2021/06/21 07:41:31;;;;;;;1.23;0.60;;;;;;;23.60;50.66;100655.06;5074170;28;20016;-59
2021/06/21 07:43:56;;;;;;;1.15;0.50;;;;;;;23.60;50.98;100663.88;5073010;28;20380;-60
2021/06/21 07:46:22;;;;;;;1.45;0.60;;;;;;;23.58;50.71;100660.56;5073871;28;20031;-59
2021/06/21 07:48:47;;;;;;;1.83;0.68;;;;;;;23.60;50.66;100665.72;5073545;28;20375;-60
2021/06/21 07:51:14;;;;;;;1.63;0.60;;;;;;;23.59;50.60;100669.34;5072401;28;20099;-60
2021/06/21 07:53:42;;;;;;;1.25;0.60;;;;;;;23.60;50.82;100685.16;5073717;28;20024;-60
2021/06/21 07:56:09;;;;;;;0.93;0.50;;;;;;;23.61;50.97;100691.31;5073216;28;20036;-60
2021/06/21 07:58:39;;;;;;;1.98;0.65;;;;;;;23.60;50.70;100689.66;5072550;28;20028;-61
2021/06/21 08:01:12;;;;;;;0.70;0.50;;;;;;;23.58;50.82;100684.50;5073017;28;20025;-60
2021/06/21 08:03:38;;;;;;;2.70;0.70;;;;;;;23.60;50.75;100698.47;5073055;28;20025;-59
2021/06/21 08:06:06;;;;;;;1.85;0.65;;;;;;;23.62;50.76;100701.78;5072379;28;20031;-60
2021/06/21 08:08:31;;;;;;;1.88;0.60;;;;;;;23.63;50.73;100707.94;5073222;28;20392;-60
2021/06/21 08:10:57;;;;;;;1.45;0.60;;;;;;;23.63;50.95;100703.44;5073221;28;20021;-59
2021/06/21 08:13:23;;;;;;;2.17;0.50;;;;;;;23.68;50.83;100716.25;5071893;28;20616;-60
2021/06/21 08:15:51;;;;;;;0.93;0.50;;;;;;;23.70;50.76;100722.25;5072972;28;20025;-59
2021/06/21 08:18:16;;;;;;;2.42;0.60;;;;;;;23.72;50.54;100725.59;5071862;28;20041;-60
2021/06/21 08:20:44;;;;;;;2.10;0.60;;;;;;;23.75;50.79;100724.41;5072963;28;20129;-58
2021/06/21 08:23:12;;;;;;;0.88;0.50;;;;;;;23.78;51.14;100726.75;5072212;28;20061;-58
2021/06/21 08:25:37;;;;;;;2.20;0.63;;;;;;;23.78;51.19;100727.56;5071938;28;20504;-59
2021/06/21 08:28:03;;;;;;;3.60;0.70;;;;;;;23.80;50.90;100728.25;5072497;28;20155;-58
2021/06/21 08:30:36;;;;;;;2.70;0.85;;;;;;;23.83;51.00;100735.06;5072527;28;20490;-59
2021/06/21 08:33:02;;;;;;;1.70;0.87;;;;;;;23.84;51.23;100731.44;5070855;28;20024;-57
2021/06/21 08:35:27;;;;;;;1.27;0.63;;;;;;;23.84;51.01;100729.59;5072328;28;20107;-58
2021/06/21 08:37:53;;;;;;;1.75;0.60;;;;;;;23.85;51.08;100725.94;5072477;28;20033;-57
2021/06/21 08:40:21;;;;;;;1.63;0.70;;;;;;;23.86;50.79;100729.44;5071499;28;20028;-58
2021/06/21 08:42:47;;;;;;;2.22;0.70;;;;;;;23.86;50.96;100727.63;5072428;28;20101;-58
2021/06/21 08:45:13;;;;;;;2.25;0.70;;;;;;;23.86;51.04;100740.09;5072034;28;20353;-59
2021/06/21 08:47:38;;;;;;;1.33;0.63;;;;;;;23.88;50.94;100740.78;5071490;28;20495;-59
2021/06/21 08:50:10;;;;;;;4.60;0.70;;;;;;;23.87;51.05;100747.06;5072104;28;20017;-58
2021/06/21 08:52:36;;;;;;;1.90;0.60;;;;;;;23.88;51.44;100751.41;5072459;28;20032;-58
2021/06/21 08:55:04;;;;;;;3.08;0.70;;;;;;;23.87;50.87;100755.06;5071114;28;20025;-57
2021/06/21 08:57:30;;;;;;;2.30;0.90;;;;;;;23.86;51.14;100762.22;5072183;28;20373;-59
2021/06/21 08:59:56;;;;;;;1.67;0.70;;;;;;;23.84;51.00;100766.84;5072897;28;20111;-59
2021/06/21 09:02:22;;;;;;;0.68;0.60;;;;;;;23.81;51.25;100766.31;5071838;28;20108;-58
2021/06/21 09:04:47;;;;;;;2.88;0.60;;;;;;;23.79;51.05;100758.50;5072136;28;20472;-59
2021/06/21 09:07:15;;;;;;;0.93;0.60;;;;;;;23.77;51.20;100738.41;5071850;28;20039;-58
2021/06/21 09:09:58;;;;;;;2.05;0.70;;;;;;;23.73;51.20;100706.81;5071567;28;20440;-59
2021/06/21 09:12:31;;;;;;;2.07;0.70;;;;;;;23.75;51.24;100684.50;5071918;28;20104;-58
2021/06/21 09:14:59;;;;;;;1.97;0.60;;;;;;;23.71;51.17;100671.53;5071593;28;20074;-58
2021/06/21 09:17:26;;;;;;;1.58;0.68;;;;;;;23.70;51.01;100672.53;5072021;28;20414;-59
2021/06/21 09:19:57;;;;;;;2.05;0.73;;;;;;;23.67;51.40;100678.19;5071985;28;20375;-58
2021/06/21 09:22:40;;;;;;;0.85;0.50;;;;;;;23.64;51.14;100675.84;5070584;28;20052;-58
2021/06/21 09:25:09;;;;;;;1.90;0.70;;;;;;;23.64;51.16;100675.00;5071498;28;20471;-59
2021/06/21 09:27:39;;;;;;;1.88;0.73;;;;;;;23.61;51.24;100670.03;5072151;28;20035;-58
2021/06/21 09:30:12;;;;;;;1.40;0.60;;;;;;;23.60;51.21;100660.41;5070966;28;20032;-60
2021/06/21 09:32:43;;;;;;;2.53;0.70;;;;;;;23.61;51.23;100659.41;5072203;28;20093;-59
2021/06/21 09:35:32;;;;;;;2.45;0.70;;;;;;;23.62;51.35;100671.69;5071759;28;20024;-59
2021/06/21 09:38:11;;;;;;;1.58;0.63;;;;;;;23.65;50.98;100695.31;5071350;28;20035;-58
2021/06/21 09:40:40;;;;;;;1.98;0.50;;;;;;;23.66;51.00;100718.25;5071870;28;20059;-59
2021/06/21 09:43:28;;;;;;;4.13;1.00;;;;;;;23.67;50.98;100720.75;5070701;28;20112;-58
2021/06/21 09:46:19;;;;;;;0.85;0.50;;;;;;;23.67;51.07;100734.06;5076518;28;20099;-59
2021/06/21 09:48:54;;;;;;;1.65;0.60;;;;;;;23.68;51.06;100746.34;5077422;28;20052;-59
2021/06/21 09:51:20;;;;;;;1.23;0.70;;;;;;;23.67;51.05;100755.34;5074763;28;20016;-59
2021/06/21 09:53:59;;;;;;;2.67;0.60;;;;;;;23.68;50.99;100764.16;5076911;28;20025;-59
2021/06/21 09:56:42;;;;;;;2.25;0.57;;;;;;;23.67;51.20;100770.44;5076450;28;20025;-58
2021/06/21 09:59:35;;;;;;;0.88;0.50;;;;;;;23.67;50.92;100779.28;5076055;28;20033;-59
2021/06/21 10:02:00;;;;;;;1.00;0.50;;;;;;;23.68;50.97;100777.44;5076216;28;20035;-59
2021/06/21 10:04:31;;;;;;;1.60;0.65;;;;;;;23.70;50.85;100794.06;5074756;28;20024;-59
2021/06/21 10:07:00;;;;;;;0.90;0.50;;;;;;;23.69;50.97;100801.22;5075835;28;20294;-59
2021/06/21 10:09:26;;;;;;;1.67;0.60;;;;;;;23.72;51.09;100811.53;5075594;28;20110;-59
2021/06/21 10:11:52;;;;;;;1.02;0.60;;;;;;;23.72;51.01;100813.38;5075060;28;20036;-60
2021/06/21 10:14:20;;;;;;;0.93;0.63;;;;;;;23.72;51.22;100821.38;5075513;28;20020;-60
2021/06/21 10:16:52;;;;;;;1.95;0.65;;;;;;;23.72;51.17;100816.88;5076419;28;20020;-60
2021/06/21 10:19:18;;;;;;;1.10;0.50;;;;;;;23.75;51.14;100814.88;5074621;28;20037;-58
2021/06/21 10:21:46;;;;;;;1.20;0.70;;;;;;;23.76;51.43;100820.03;5076284;28;20025;-60
2021/06/21 10:24:13;;;;;;;1.48;0.60;;;;;;;23.76;51.01;100812.03;5075172;28;20052;-60
2021/06/21 10:26:41;;;;;;;2.55;0.70;;;;;;;23.79;51.49;100817.03;5074286;28;20048;-62
2021/06/21 10:29:07;;;;;;;1.42;0.60;;;;;;;23.83;51.28;100825.53;5074680;28;20029;-59
2021/06/21 10:31:35;;;;;;;1.77;0.60;;;;;;;23.85;51.42;100826.25;5074693;28;20065;-60
2021/06/21 10:34:04;;;;;;;2.35;0.90;;;;;;;23.86;51.59;100826.09;5074464;28;20028;-59
2021/06/21 10:36:43;;;;;;;3.13;0.70;;;;;;;23.88;51.54;100826.75;5074978;28;20067;-58
2021/06/21 10:39:17;;;;;;;1.60;0.70;;;;;;;23.87;51.50;100822.41;5073813;28;20028;-59
2021/06/21 10:42:09;;;;;;;2.10;0.50;;;;;;;23.89;51.64;100831.09;5074496;28;20492;-59
2021/06/21 10:44:45;;;;;;;2.28;0.75;;;;;;;23.86;51.32;100825.22;5074709;28;20032;-58
2021/06/21 10:47:32;;;;;;;1.75;0.60;;;;;;;23.83;51.54;100825.53;5073779;28;20031;-59
2021/06/21 10:50:16;;;;;;;1.10;0.63;;;;;;;23.82;51.67;100831.88;5074730;28;20032;-59
2021/06/21 10:52:53;;;;;;;2.53;0.65;;;;;;;23.82;51.63;100826.53;5074584;28;20041;-59
2021/06/21 10:55:25;;;;;;;1.55;0.70;;;;;;;23.84;51.82;100848.53;5073315;28;20098;-60
2021/06/21 10:57:58;;;;;;;4.43;0.90;;;;;;;23.83;51.78;100842.38;5074615;28;20461;-59
2021/06/21 11:00:36;;;;;;;3.20;0.70;;;;;;;23.84;51.50;100851.19;5073453;28;20025;-60
2021/06/21 11:03:04;;;;;;;1.52;0.68;;;;;;;23.86;51.66;100858.03;5074622;28;20299;-62
2021/06/21 11:05:37;;;;;;;2.10;0.80;;;;;;;23.88;51.91;100858.69;5074503;28;20047;-61
2021/06/21 11:08:27;;;;;;;1.73;0.70;;;;;;;23.90;51.35;100856.69;5073473;28;20082;-60
2021/06/21 11:10:55;;;;;;;2.20;0.93;;;;;;;23.87;51.30;100851.69;5074340;28;20108;-59
2021/06/21 11:13:36;;;;;;;2.63;0.73;;;;;;;23.92;51.23;100861.84;5073813;28;20048;-58
2021/06/21 11:16:18;;;;;;;2.05;0.70;;;;;;;23.90;51.37;100867.34;5073284;28;20055;-61
2021/06/21 11:18:46;;;;;;;1.13;0.68;;;;;;;23.89;51.05;100876.34;5074040;28;20025;-59
2021/06/21 11:21:18;;;;;;;2.20;0.75;;;;;;;23.90;51.50;100893.94;5073019;28;20028;-58
2021/06/21 11:23:49;;;;;;;2.97;0.70;;;;;;;23.92;51.08;100890.31;5073851;28;20040;-59
2021/06/21 11:26:17;;;;;;;2.28;0.80;;;;;;;23.90;51.44;100899.28;5073552;28;20448;-59
2021/06/21 11:29:28;;;;;;;5.88;0.90;;;;;;;23.92;51.24;100908.94;5073236;28;20059;-58
2021/06/21 11:32:01;;;;;;;3.88;0.80;;;;;;;23.92;51.28;100916.91;5073783;28;20397;-60
2021/06/21 11:34:57;;;;;;;4.00;0.90;;;;;;;23.90;51.46;100917.06;5073940;28;20048;-58
2021/06/21 11:37:31;;;;;;;1.95;0.73;;;;;;;23.90;51.37;100931.19;5066816;28;20040;-59